Time;durP1;ratioP1;P1;durP2;ratioP2;P2;SDS_P1;SDS_P2;PMS_P1;PMS_P2;Temp;Humidity;BMP_temperature;BMP_pressure;BME280_temperature;BME280_humidity;BME280_pressure;Samples;Min_cycle;Max_cycle;Signal;HPM_P1;HPM_P2
2021/03/23 00:00:51;;;;;;;30.50;14.18;;;6.70;99.90;;;;;;5012979;28;20529;-67
2021/03/23 00:03:28;;;;;;;28.73;13.98;;;6.70;99.90;;;;;;5012844;28;20045;-65
2021/03/23 00:05:55;;;;;;;31.48;14.57;;;6.60;99.90;;;;;;4995404;28;20088;-65
2021/03/23 00:08:48;;;;;;;33.30;14.85;;;6.60;99.90;;;;;;5012522;28;20088;-65
2021/03/23 00:11:29;;;;;;;27.55;12.98;;;6.60;99.90;;;;;;5012521;28;20450;-63
2021/03/23 00:13:58;;;;;;;35.60;14.00;;;6.50;99.90;;;;;;5012492;28;20053;-65
2021/03/23 00:16:28;;;;;;;29.50;13.45;;;6.50;99.90;;;;;;5012700;28;20042;-65
2021/03/23 00:18:55;;;;;;;25.88;13.13;;;6.50;99.90;;;;;;4995230;28;20036;-65
2021/03/23 00:21:23;;;;;;;28.85;13.95;;;6.50;99.90;;;;;;5012451;28;20121;-65
2021/03/23 00:23:49;;;;;;;28.30;13.25;;;6.50;99.90;;;;;;4995263;28;20029;-66
2021/03/23 00:26:16;;;;;;;27.38;13.65;;;6.50;99.90;;;;;;4995049;28;20026;-64
2021/03/23 00:28:48;;;;;;;26.90;13.18;;;6.50;99.90;;;;;;4995080;28;20041;-64
2021/03/23 00:31:22;;;;;;;;;;;6.50;99.90;;;;;;5012900;28;20030;-64
2021/03/23 00:33:48;;;;;;;37.53;14.52;;;6.50;99.90;;;;;;4995130;28;19917;-64
2021/03/23 00:36:20;;;;;;;33.25;14.57;;;6.50;99.90;;;;;;4994582;28;20041;-64
2021/03/23 00:38:46;;;;;;;35.97;14.15;;;6.50;99.90;;;;;;5012213;28;20053;-64
2021/03/23 00:41:12;;;;;;;32.38;14.68;;;6.50;99.90;;;;;;5012302;28;20026;-65
2021/03/23 00:43:39;;;;;;;27.83;14.45;;;6.50;99.90;;;;;;5011992;28;20041;-65
2021/03/23 00:46:07;;;;;;;30.70;13.90;;;6.50;99.90;;;;;;4994814;28;20026;-64
2021/03/23 00:48:33;;;;;;;30.08;13.85;;;6.50;99.90;;;;;;5012122;28;20030;-64
2021/03/23 00:50:59;;;;;;;33.45;14.70;;;6.50;99.90;;;;;;5012322;28;20030;-64
2021/03/23 00:53:24;;;;;;;28.58;14.73;;;6.40;99.90;;;;;;5011963;28;20387;-64
2021/03/23 00:55:51;;;;;;;29.95;13.88;;;6.40;99.90;;;;;;4978337;28;20049;-65
2021/03/23 00:58:17;;;;;;;33.80;14.25;;;6.40;99.90;;;;;;4994735;28;20026;-64
2021/03/23 01:00:42;;;;;;;31.65;15.05;;;6.40;99.90;;;;;;4996347;28;20077;-64
2021/03/23 01:03:08;;;;;;;35.80;13.90;;;6.40;99.90;;;;;;5015892;28;20529;-65
2021/03/23 01:05:35;;;;;;;30.40;13.73;;;6.40;99.90;;;;;;4998476;28;20109;-65
2021/03/23 01:08:04;;;;;;;32.80;14.45;;;6.40;99.90;;;;;;4982210;28;20034;-64
2021/03/23 01:10:32;;;;;;;29.08;13.10;;;6.30;99.90;;;;;;5015672;28;20037;-64
2021/03/23 01:12:57;;;;;;;31.60;13.77;;;6.40;99.90;;;;;;4997849;28;20037;-64
2021/03/23 01:15:32;;;;;;;31.75;14.02;;;6.40;99.90;;;;;;5015772;28;20118;-65
2021/03/23 01:17:58;;;;;;;30.17;12.93;;;6.50;99.90;;;;;;5015608;28;20029;-65
2021/03/23 01:20:26;;;;;;;30.95;13.40;;;6.50;99.90;;;;;;5015665;28;20487;-64
2021/03/23 01:22:52;;;;;;;30.02;14.05;;;6.50;99.90;;;;;;4997606;28;20189;-64
2021/03/23 01:25:20;;;;;;;25.60;12.95;;;6.50;99.90;;;;;;5015102;28;20044;-65
2021/03/23 01:27:48;;;;;;;32.45;12.88;;;6.40;99.90;;;;;;5015147;28;20040;-64
2021/03/23 01:30:18;;;;;;;34.10;14.18;;;6.50;99.90;;;;;;5014738;28;20037;-64
2021/03/23 01:32:43;;;;;;;29.67;12.70;;;6.50;99.90;;;;;;5015020;28;20038;-64
2021/03/23 01:35:10;;;;;;;32.95;14.98;;;6.50;99.90;;;;;;5014755;28;20044;-64
2021/03/23 01:37:36;;;;;;;28.95;13.40;;;6.50;99.90;;;;;;4996959;28;20034;-65
2021/03/23 01:40:03;;;;;;;28.38;12.05;;;6.50;99.90;;;;;;5014786;28;20077;-64
2021/03/23 01:42:47;;;;;;;33.17;13.25;;;6.50;99.90;;;;;;4997556;28;20033;-65
2021/03/23 01:45:18;;;;;;;34.15;13.85;;;6.50;99.90;;;;;;5015202;28;20174;-65
2021/03/23 01:47:45;;;;;;;28.48;12.05;;;6.50;99.90;;;;;;4997809;28;20379;-64
2021/03/23 01:50:12;;;;;;;27.80;12.40;;;6.50;99.90;;;;;;5015056;28;20426;-64
2021/03/23 01:52:39;;;;;;;30.05;13.23;;;6.50;99.90;;;;;;5014886;28;20034;-64
2021/03/23 01:55:08;;;;;;;31.52;12.77;;;6.50;99.90;;;;;;4997499;28;20037;-64
2021/03/23 01:57:37;;;;;;;30.67;13.77;;;6.50;99.90;;;;;;4997839;28;20026;-65
2021/03/23 02:00:08;;;;;;;32.10;13.32;;;6.60;99.90;;;;;;4997610;28;20116;-64
2021/03/23 02:02:34;;;;;;;26.92;12.50;;;6.50;99.90;;;;;;4997733;28;20026;-64
2021/03/23 02:05:00;;;;;;;29.55;12.35;;;6.50;99.90;;;;;;5014761;28;20030;-65
2021/03/23 02:07:25;;;;;;;31.15;12.57;;;6.50;99.90;;;;;;4997181;28;20022;-64
2021/03/23 02:09:57;;;;;;;28.52;12.43;;;6.60;99.90;;;;;;5014692;28;20049;-64
2021/03/23 02:12:26;;;;;;;;;;;6.70;99.90;;;;;;4996989;28;20545;-63
2021/03/23 02:14:53;;;;;;;30.92;12.00;;;6.60;99.90;;;;;;4997503;28;19909;-64
2021/03/23 02:17:37;;;;;;;29.13;12.35;;;6.60;99.90;;;;;;5014389;28;20581;-64
2021/03/23 02:20:16;;;;;;;32.33;12.68;;;6.60;99.90;;;;;;5014490;28;20022;-64
2021/03/23 02:22:48;;;;;;;43.22;13.70;;;6.60;99.90;;;;;;5014249;28;20127;-65
2021/03/23 02:25:18;;;;;;;30.73;13.48;;;6.60;99.90;;;;;;5014217;28;20030;-64
2021/03/23 02:27:44;;;;;;;30.98;12.75;;;6.60;99.90;;;;;;4996729;28;20531;-64
2021/03/23 02:30:21;;;;;;;32.30;14.20;;;6.60;99.90;;;;;;5014152;28;20112;-64
2021/03/23 02:32:47;;;;;;;31.65;12.82;;;6.50;99.90;;;;;;4997175;28;20049;-63
2021/03/23 02:35:14;;;;;;;37.85;12.52;;;6.60;99.90;;;;;;5014084;28;20034;-64
2021/03/23 02:37:39;;;;;;;30.63;13.50;;;6.60;99.90;;;;;;5013883;28;20034;-65
2021/03/23 02:40:07;;;;;;;33.08;13.50;;;6.60;99.90;;;;;;4996655;28;20087;-65
2021/03/23 02:42:33;;;;;;;31.85;13.27;;;6.60;99.90;;;;;;5014165;28;20034;-65
2021/03/23 02:44:59;;;;;;;35.03;12.70;;;6.60;99.90;;;;;;5014027;28;20096;-64
2021/03/23 02:47:25;;;;;;;28.45;12.13;;;6.60;99.90;;;;;;4996427;28;20084;-65
2021/03/23 02:49:51;;;;;;;33.40;13.63;;;6.60;99.90;;;;;;5013708;28;20045;-64
2021/03/23 02:52:18;;;;;;;36.42;13.30;;;6.60;99.90;;;;;;4996115;28;20026;-64
2021/03/23 02:54:44;;;;;;;33.67;12.05;;;6.60;99.90;;;;;;5013934;28;20391;-64
2021/03/23 02:57:10;;;;;;;30.65;11.90;;;6.60;99.90;;;;;;5013837;28;20030;-65
2021/03/23 02:59:36;;;;;;;34.25;13.95;;;6.60;99.90;;;;;;5013485;28;20026;-64
2021/03/23 03:02:04;;;;;;;34.13;14.95;;;6.60;99.90;;;;;;5013678;28;20497;-64
2021/03/23 03:04:32;;;;;;;30.42;13.23;;;6.60;99.90;;;;;;4996283;28;20112;-64
2021/03/23 03:06:58;;;;;;;34.58;13.18;;;6.60;99.90;;;;;;5013833;28;20069;-64
2021/03/23 03:09:23;;;;;;;30.85;12.32;;;6.50;99.90;;;;;;5013603;28;20136;-64
2021/03/23 03:11:50;;;;;;;30.25;13.20;;;6.50;99.90;;;;;;5013628;28;20090;-65
2021/03/23 03:14:18;;;;;;;29.90;11.55;;;6.50;99.90;;;;;;5013414;28;20124;-64
2021/03/23 03:16:44;;;;;;;28.52;11.40;;;6.60;99.90;;;;;;5013535;28;20105;-65
2021/03/23 03:19:09;;;;;;;34.42;12.23;;;6.60;99.90;;;;;;5013363;28;20443;-65
2021/03/23 03:21:35;;;;;;;35.22;13.70;;;6.60;99.90;;;;;;4996071;28;20081;-65
2021/03/23 03:24:01;;;;;;;31.92;12.75;;;6.70;99.90;;;;;;4995813;28;20483;-65
2021/03/23 03:26:27;;;;;;;32.45;13.10;;;6.60;99.90;;;;;;5013035;28;20037;-65
2021/03/23 03:28:53;;;;;;;33.67;12.73;;;6.60;99.90;;;;;;5013048;28;20034;-65
2021/03/23 03:31:25;;;;;;;35.85;13.10;;;6.60;99.90;;;;;;5012826;28;20037;-64
2021/03/23 03:33:53;;;;;;;30.30;12.85;;;6.60;99.90;;;;;;5012978;28;20026;-64
2021/03/23 03:36:22;;;;;;;33.42;12.30;;;6.60;99.90;;;;;;5013094;28;20030;-64
2021/03/23 03:38:49;;;;;;;29.95;12.98;;;6.60;99.90;;;;;;4979466;28;20613;-64
2021/03/23 03:41:16;;;;;;;31.73;11.68;;;6.50;99.90;;;;;;5012962;28;20046;-64
2021/03/23 03:43:42;;;;;;;27.83;12.00;;;6.60;99.90;;;;;;4995419;28;20033;-64
2021/03/23 03:46:09;;;;;;;32.40;12.35;;;6.60;99.90;;;;;;5012821;28;20076;-64
2021/03/23 03:48:35;;;;;;;29.75;12.38;;;6.60;99.90;;;;;;5012812;28;20129;-64
2021/03/23 03:51:02;;;;;;;29.17;12.02;;;6.60;99.90;;;;;;5012787;28;20522;-64
2021/03/23 03:53:27;;;;;;;29.38;13.70;;;6.60;99.90;;;;;;4995414;28;20062;-64
2021/03/23 03:55:54;;;;;;;32.97;13.80;;;6.50;99.90;;;;;;4995502;28;20065;-64
2021/03/23 03:58:21;;;;;;;36.60;13.15;;;6.50;99.90;;;;;;4995289;28;20038;-64
2021/03/23 04:00:47;;;;;;;31.48;12.30;;;6.50;99.90;;;;;;5012830;28;20037;-64
2021/03/23 04:03:26;;;;;;;30.17;11.95;;;6.50;99.90;;;;;;5012733;28;20038;-64
2021/03/23 04:05:54;;;;;;;33.95;13.10;;;6.60;99.90;;;;;;4995224;28;20105;-64
2021/03/23 04:08:33;;;;;;;37.53;14.10;;;6.60;99.90;;;;;;5012809;28;20033;-63
2021/03/23 04:11:02;;;;;;;26.40;11.52;;;6.60;99.90;;;;;;5012574;28;20026;-64
2021/03/23 04:13:28;;;;;;;31.27;13.35;;;6.50;99.90;;;;;;5012296;28;20030;-63
2021/03/23 04:15:55;;;;;;;30.08;12.48;;;6.50;99.90;;;;;;5012601;28;20033;-63
2021/03/23 04:18:24;;;;;;;33.22;12.70;;;6.50;99.90;;;;;;5012643;28;20122;-63
2021/03/23 04:20:52;;;;;;;39.42;13.55;;;6.60;99.90;;;;;;4994639;28;20026;-63
2021/03/23 04:23:29;;;;;;;32.92;13.45;;;6.60;99.90;;;;;;5012252;28;20081;-63
2021/03/23 04:25:56;;;;;;;32.83;13.27;;;6.50;99.90;;;;;;5012499;28;20037;-64
2021/03/23 04:28:22;;;;;;;37.00;13.60;;;6.50;99.90;;;;;;5012465;28;20060;-64
2021/03/23 04:30:49;;;;;;;30.15;12.40;;;6.50;99.90;;;;;;5012513;28;20034;-63
2021/03/23 04:33:17;;;;;;;32.72;12.40;;;6.50;99.90;;;;;;4994968;28;20371;-64
2021/03/23 04:35:58;;;;;;;30.02;12.57;;;6.50;99.90;;;;;;5014422;28;20034;-63
2021/03/23 04:38:38;;;;;;;30.30;12.98;;;6.50;99.90;;;;;;4998701;28;20041;-64
2021/03/23 04:41:10;;;;;;;33.30;11.90;;;6.50;99.90;;;;;;4998552;28;20077;-63
2021/03/23 04:43:49;;;;;;;30.95;12.50;;;6.50;99.90;;;;;;4999536;28;20475;-64
2021/03/23 04:46:27;;;;;;;31.95;14.05;;;6.40;99.90;;;;;;4966091;28;20125;-63
2021/03/23 04:48:53;;;;;;;32.67;13.57;;;6.50;99.90;;;;;;5016438;28;20029;-63
2021/03/23 04:51:22;;;;;;;37.58;13.93;;;6.50;99.90;;;;;;5016067;28;20029;-63
2021/03/23 04:53:48;;;;;;;31.92;13.10;;;6.50;99.90;;;;;;5015540;28;20537;-63
2021/03/23 04:56:25;;;;;;;34.33;12.77;;;6.50;99.90;;;;;;4991091;28;20054;-64
2021/03/23 04:58:51;;;;;;;32.03;12.75;;;6.50;99.90;;;;;;5015304;28;20029;-62
2021/03/23 05:01:18;;;;;;;34.00;12.63;;;6.50;99.90;;;;;;5015149;28;20034;-76
2021/03/23 05:03:44;;;;;;;36.80;13.50;;;6.50;99.90;;;;;;5013635;28;20101;-68
2021/03/23 05:06:12;;;;;;;32.88;12.95;;;6.50;99.90;;;;;;5015546;28;20122;-67
2021/03/23 05:08:42;;;;;;;28.98;12.70;;;6.50;99.90;;;;;;5021131;28;20042;-67
2021/03/23 05:11:11;;;;;;;35.92;14.00;;;6.50;99.90;;;;;;5015228;28;20394;-67
2021/03/23 05:13:37;;;;;;;32.35;13.20;;;6.40;99.90;;;;;;5011459;28;20104;-65
2021/03/23 05:16:04;;;;;;;30.10;12.50;;;6.40;99.90;;;;;;5013502;28;20475;-66
2021/03/23 05:18:33;;;;;;;33.55;13.32;;;6.40;99.90;;;;;;5013455;28;20053;-66
2021/03/23 05:20:59;;;;;;;33.10;13.00;;;6.40;99.90;;;;;;5014653;28;20088;-65
2021/03/23 05:23:25;;;;;;;33.75;12.95;;;6.50;99.90;;;;;;5014122;28;20092;-65
2021/03/23 05:25:51;;;;;;;32.20;13.82;;;6.40;99.90;;;;;;5015688;28;20027;-65
2021/03/23 05:28:18;;;;;;;33.85;12.80;;;6.40;99.90;;;;;;5014941;28;20030;-65
2021/03/23 05:30:44;;;;;;;30.23;12.70;;;6.40;99.90;;;;;;5024391;28;20033;-65
2021/03/23 05:33:12;;;;;;;36.97;12.27;;;6.40;99.90;;;;;;5035003;28;20040;-65
2021/03/23 05:35:38;;;;;;;30.52;13.95;;;6.30;99.90;;;;;;5017565;28;20435;-65
2021/03/23 05:38:05;;;;;;;37.38;14.48;;;6.30;99.90;;;;;;5014870;28;20099;-66
2021/03/23 05:40:33;;;;;;;36.67;14.27;;;6.30;99.90;;;;;;5014684;28;20057;-67
2021/03/23 05:43:35;;;;;;;34.35;12.70;;;6.40;99.90;;;;;;5014205;28;20057;-67
2021/03/23 05:46:16;;;;;;;28.23;12.32;;;6.40;99.90;;;;;;5009377;28;20455;-68
2021/03/23 05:48:56;;;;;;;32.80;11.70;;;6.40;99.90;;;;;;5012269;28;20038;-67
2021/03/23 05:51:41;;;;;;;41.83;14.63;;;6.30;99.90;;;;;;4999179;28;20498;-69
2021/03/23 05:54:23;;;;;;;36.30;13.52;;;6.30;99.90;;;;;;4978262;28;20092;-67
2021/03/23 05:56:56;;;;;;;30.45;12.90;;;6.40;99.90;;;;;;4995466;28;20030;-68
2021/03/23 05:59:46;;;;;;;39.72;14.75;;;6.30;99.90;;;;;;4978333;28;20026;-66
2021/03/23 06:02:34;;;;;;;38.90;16.20;;;6.30;99.90;;;;;;5014418;28;20574;-67
2021/03/23 06:05:31;;;;;;;34.13;14.00;;;6.10;99.90;;;;;;4999964;28;20141;-68
2021/03/23 06:08:01;;;;;;;29.23;13.45;;;6.00;99.90;;;;;;4986413;28;20036;-68
2021/03/23 06:10:28;;;;;;;37.17;14.75;;;5.90;99.90;;;;;;5014441;28;20037;-68
2021/03/23 06:13:27;;;;;;;31.88;12.75;;;6.00;99.90;;;;;;5013244;28;20049;-68
2021/03/23 06:16:04;;;;;;;36.97;14.80;;;6.10;99.90;;;;;;5014664;28;20030;-68
2021/03/23 06:19:07;;;;;;;38.47;16.42;;;6.00;99.90;;;;;;5014181;28;20038;-70
2021/03/23 06:21:53;;;;;;;32.90;14.05;;;6.00;99.90;;;;;;5013336;28;20443;-69
2021/03/23 06:24:36;;;;;;;37.38;13.50;;;5.90;99.90;;;;;;5009949;28;20495;-73
2021/03/23 06:27:17;;;;;;;35.28;13.82;;;5.90;99.90;;;;;;4993673;28;20034;-70
2021/03/23 06:30:12;;;;;;;37.63;14.45;;;6.00;99.90;;;;;;4980266;28;20484;-70
2021/03/23 06:32:46;;;;;;;38.38;14.13;;;6.10;99.90;;;;;;4981024;28;20038;-70
2021/03/23 06:35:28;;;;;;;32.30;14.57;;;6.10;99.90;;;;;;5016339;28;20037;-70
2021/03/23 06:37:54;;;;;;;35.50;14.40;;;6.10;99.90;;;;;;5033734;28;20041;-70
2021/03/23 06:40:28;;;;;;;37.03;13.55;;;6.10;99.90;;;;;;5033580;28;20406;-70
2021/03/23 06:43:13;;;;;;;31.05;13.50;;;6.10;99.90;;;;;;5033936;28;20068;-70
2021/03/23 06:45:40;;;;;;;41.75;14.57;;;6.20;99.90;;;;;;5018458;28;20037;-70
2021/03/23 06:48:25;;;;;;;36.78;15.23;;;6.20;99.90;;;;;;5016026;28;20033;-70
2021/03/23 06:51:10;;;;;;;34.75;13.98;;;6.10;99.90;;;;;;5033876;28;20557;-71
2021/03/23 06:53:37;;;;;;;36.28;14.38;;;6.20;99.90;;;;;;5015491;28;20038;-70
2021/03/23 06:56:25;;;;;;;34.05;13.50;;;6.20;99.90;;;;;;5033732;28;20025;-70
2021/03/23 06:59:19;;;;;;;40.17;16.15;;;6.30;99.90;;;;;;5032916;28;20037;-69
2021/03/23 07:01:50;;;;;;;58.78;26.58;;;6.20;99.90;;;;;;5015787;28;20029;-70
2021/03/23 07:04:16;;;;;;;;;;;6.20;99.90;;;;;;5014135;28;20166;-70
2021/03/23 07:06:43;;;;;;;35.63;14.43;;;6.30;99.90;;;;;;5013669;28;19913;-70
2021/03/23 07:09:20;;;;;;;40.50;15.52;;;6.30;99.90;;;;;;5013565;28;20034;-70
2021/03/23 07:12:00;;;;;;;41.33;15.43;;;6.40;99.90;;;;;;5013651;28;20034;-70
2021/03/23 07:14:31;;;;;;;36.85;13.73;;;6.30;99.90;;;;;;5015724;28;20120;-70
2021/03/23 07:17:05;;;;;;;38.60;14.27;;;6.50;99.90;;;;;;5013504;28;20042;-70
2021/03/23 07:19:41;;;;;;;36.75;13.35;;;6.60;99.90;;;;;;5013311;28;20038;-70
2021/03/23 07:22:21;;;;;;;32.15;13.65;;;6.70;99.90;;;;;;5012755;28;20034;-70
2021/03/23 07:24:57;;;;;;;36.92;12.48;;;6.80;99.90;;;;;;5005240;28;20177;-70
2021/03/23 07:27:29;;;;;;;36.30;13.90;;;6.80;99.90;;;;;;4998190;28;20137;-72
2021/03/23 07:30:30;;;;;;;36.95;13.93;;;6.90;99.90;;;;;;5001044;28;20040;-71
2021/03/23 07:33:01;;;;;;;63.00;25.52;;;7.00;99.90;;;;;;5015661;28;20041;-73
2021/03/23 07:35:32;;;;;;;;;;;7.00;99.90;;;;;;5016143;28;20137;-73
2021/03/23 07:38:34;;;;;;;31.13;12.27;;;7.10;99.90;;;;;;4999002;28;19925;-70
2021/03/23 07:41:01;;;;;;;33.47;12.68;;;7.10;99.90;;;;;;5032757;28;20430;-71
2021/03/23 07:43:38;;;;;;;32.63;14.10;;;6.90;99.90;;;;;;5032609;28;20025;-72
2021/03/23 07:46:23;;;;;;;33.65;13.23;;;7.00;99.90;;;;;;5032464;28;20064;-71
2021/03/23 07:49:20;;;;;;;35.25;12.77;;;7.00;99.90;;;;;;5032409;28;20372;-70
2021/03/23 07:51:59;;;;;;;34.15;13.40;;;6.90;99.90;;;;;;5032504;28;20052;-71
2021/03/23 07:54:40;;;;;;;28.48;11.52;;;6.90;99.90;;;;;;5015416;28;20033;-71
2021/03/23 07:57:30;;;;;;;33.83;12.20;;;7.00;99.90;;;;;;5032700;28;20033;-71
2021/03/23 08:00:05;;;;;;;31.77;12.50;;;6.90;99.90;;;;;;5029766;28;20044;-70
2021/03/23 08:03:17;;;;;;;28.08;13.05;;;6.80;99.90;;;;;;5012481;28;20112;-69
2021/03/23 08:06:10;;;;;;;31.35;12.02;;;6.90;99.90;;;;;;4937381;29;20040;-57
2021/03/23 08:09:06;;;;;;;33.95;12.80;;;6.90;99.90;;;;;;4982349;28;20056;-56
2021/03/23 08:12:25;;;;;;;31.33;13.30;;;7.00;99.90;;;;;;4994090;28;20038;-69
2021/03/23 08:15:15;;;;;;;40.33;14.43;;;7.20;99.90;;;;;;5012166;28;20042;-70
2021/03/23 08:18:14;;;;;;;40.83;14.23;;;7.30;99.90;;;;;;5010712;28;20498;-70
2021/03/23 08:20:53;;;;;;;36.17;12.98;;;7.10;99.90;;;;;;5011015;28;20436;-70
2021/03/23 08:23:40;;;;;;;32.50;12.18;;;7.10;99.90;;;;;;5011235;28;20485;-71
2021/03/23 08:26:31;;;;;;;32.97;12.18;;;7.30;99.90;;;;;;5012680;28;20065;-70
2021/03/23 08:29:42;;;;;;;25.98;11.13;;;7.60;99.90;;;;;;5011174;28;20029;-68
2021/03/23 08:32:29;;;;;;;28.93;10.77;;;7.50;99.90;;;;;;4992820;28;20034;-70
2021/03/23 08:35:17;;;;;;;30.73;10.95;;;7.50;99.90;;;;;;4992543;28;20035;-70
2021/03/23 08:38:34;;;;;;;23.15;9.18;;;7.80;99.90;;;;;;4992485;28;20037;-69
2021/03/23 08:41:30;;;;;;;25.20;9.82;;;7.80;99.90;;;;;;4992779;28;20030;-70
2021/03/23 08:43:56;;;;;;;27.70;10.30;;;7.70;99.90;;;;;;4992747;28;20042;-70
2021/03/23 08:46:29;;;;;;;24.08;10.35;;;7.80;99.90;;;;;;4991133;28;20034;-70
2021/03/23 08:49:16;;;;;;;25.67;11.13;;;7.70;99.90;;;;;;5006685;28;20038;-69
2021/03/23 08:51:49;;;;;;;23.20;10.23;;;7.80;99.90;;;;;;4976529;28;20030;-69
2021/03/23 08:54:49;;;;;;;23.08;10.52;;;8.20;99.90;;;;;;4975504;28;20356;-69
2021/03/23 08:57:16;;;;;;;29.70;11.20;;;8.20;99.90;;;;;;4992794;28;20030;-69
2021/03/23 08:59:47;;;;;;;30.15;11.30;;;8.30;99.90;;;;;;4976853;28;20058;-68
2021/03/23 09:02:12;;;;;;;27.63;11.13;;;7.80;99.90;;;;;;5028614;28;20042;-70
2021/03/23 09:04:43;;;;;;;25.73;10.75;;;8.10;99.90;;;;;;5012512;28;20087;-71
2021/03/23 09:07:33;;;;;;;29.70;11.00;;;8.40;99.90;;;;;;4993391;28;20440;-70
2021/03/23 09:10:00;;;;;;;28.15;11.27;;;8.60;99.90;;;;;;4993171;28;20117;-69
2021/03/23 09:12:44;;;;;;;28.67;12.32;;;8.70;99.90;;;;;;4992873;28;20022;-70
2021/03/23 09:15:11;;;;;;;34.30;12.98;;;8.90;99.90;;;;;;5011407;28;20375;-70
2021/03/23 09:18:20;;;;;;;38.90;19.35;;;9.00;99.90;;;;;;5011421;28;20720;-70
2021/03/23 09:20:46;;;;;;;28.17;12.07;;;9.00;99.90;;;;;;4995561;28;20042;-70
2021/03/23 09:23:21;;;;;;;27.35;12.20;;;9.10;99.90;;;;;;4997729;28;20037;-69
2021/03/23 09:26:28;;;;;;;28.52;12.20;;;8.90;99.90;;;;;;5015452;28;20026;-68
2021/03/23 09:28:54;;;;;;;28.08;12.95;;;9.00;99.90;;;;;;5000600;28;20129;-67
2021/03/23 09:31:41;;;;;;;27.35;12.25;;;9.20;99.90;;;;;;5011837;28;20105;-68
2021/03/23 09:35:05;;;;;;;25.58;13.10;;;9.10;99.90;;;;;;5020091;28;20037;-68
2021/03/23 09:37:42;;;;;;;26.83;12.02;;;9.30;99.90;;;;;;5034741;28;20117;-68
2021/03/23 09:40:17;;;;;;;25.48;13.07;;;9.50;99.70;;;;;;5017906;28;20088;-68
2021/03/23 09:43:22;;;;;;;29.70;11.80;;;9.40;99.90;;;;;;5016913;28;20034;-68
2021/03/23 09:45:48;;;;;;;25.70;12.65;;;9.70;99.60;;;;;;5008062;28;20059;-68
2021/03/23 09:48:13;;;;;;;25.90;13.85;;;9.70;99.30;;;;;;5035030;28;20100;-68
2021/03/23 09:50:51;;;;;;;26.75;12.82;;;10.00;99.10;;;;;;5034602;28;20030;-67
2021/03/23 09:53:37;;;;;;;29.52;13.77;;;9.90;98.70;;;;;;5034914;28;20033;-68
2021/03/23 09:56:13;;;;;;;27.38;13.48;;;9.60;99.10;;;;;;5034934;28;20053;-68
2021/03/23 09:58:40;;;;;;;28.95;13.57;;;9.70;99.90;;;;;;5016618;28;20425;-68
2021/03/23 10:01:21;;;;;;;28.15;13.02;;;10.00;99.00;;;;;;5022321;28;20131;-67
2021/03/23 10:03:50;;;;;;;30.70;13.50;;;9.80;98.60;;;;;;4996878;28;20198;-68
2021/03/23 10:06:25;;;;;;;26.23;13.40;;;10.10;98.80;;;;;;5014961;28;20042;-69
2021/03/23 10:09:07;;;;;;;23.08;12.07;;;10.10;97.40;;;;;;5014754;28;20045;-69
2021/03/23 10:11:45;;;;;;;26.50;12.02;;;10.40;96.60;;;;;;5014602;28;20041;-68
2021/03/23 10:14:29;;;;;;;23.75;12.13;;;10.60;96.10;;;;;;5014847;28;20049;-69
2021/03/23 10:17:10;;;;;;;25.25;12.32;;;10.60;95.30;;;;;;5014613;28;20034;-68
2021/03/23 10:19:48;;;;;;;25.70;13.15;;;10.50;95.40;;;;;;4997032;28;20030;-69
2021/03/23 10:22:37;;;;;;;29.15;13.30;;;10.50;95.40;;;;;;4981512;28;20455;-68
2021/03/23 10:25:14;;;;;;;25.58;11.45;;;10.30;96.10;;;;;;4996683;28;20026;-68
2021/03/23 10:27:40;;;;;;;23.42;12.00;;;10.30;96.20;;;;;;4998026;28;20433;-68
2021/03/23 10:30:15;;;;;;;24.20;11.90;;;10.40;95.70;;;;;;5001847;28;20041;-68
2021/03/23 10:32:53;;;;;;;25.08;12.35;;;10.50;95.80;;;;;;5013565;28;20113;-68
2021/03/23 10:35:39;;;;;;;25.95;13.30;;;10.40;95.90;;;;;;4994342;28;20062;-68
2021/03/23 10:38:30;;;;;;;21.95;11.30;;;10.40;96.10;;;;;;4980560;28;20121;-69
2021/03/23 10:41:21;;;;;;;25.15;12.13;;;10.10;95.40;;;;;;4994373;28;20472;-68
2021/03/23 10:43:53;;;;;;;25.70;11.65;;;10.20;96.10;;;;;;4994048;28;20035;-68
2021/03/23 10:46:43;;;;;;;24.67;11.95;;;10.30;95.70;;;;;;5009294;28;20034;-67
2021/03/23 10:49:27;;;;;;;23.60;10.90;;;10.30;94.70;;;;;;5014088;28;20034;-68
2021/03/23 10:52:06;;;;;;;22.70;11.07;;;10.20;95.20;;;;;;5012722;28;20034;-68
2021/03/23 10:54:37;;;;;;;25.38;12.27;;;10.00;96.00;;;;;;5013052;28;20487;-67
2021/03/23 10:57:24;;;;;;;26.23;11.02;;;9.90;96.50;;;;;;5013337;28;20050;-63
2021/03/23 10:59:51;;;;;;;28.45;12.18;;;9.90;96.10;;;;;;5010926;28;20049;-66
2021/03/23 11:02:31;;;;;;;26.08;12.43;;;9.90;95.30;;;;;;5005131;28;20036;-64
2021/03/23 11:05:17;;;;;;;22.23;12.20;;;10.00;95.80;;;;;;5012791;28;20026;-65
2021/03/23 11:07:51;;;;;;;26.02;12.18;;;10.10;95.20;;;;;;5013551;28;20034;-66
2021/03/23 11:10:21;;;;;;;25.15;12.13;;;10.00;95.80;;;;;;5021170;28;20048;-64
2021/03/23 11:12:46;;;;;;;23.40;11.05;;;9.80;96.90;;;;;;5033240;28;20104;-65
2021/03/23 11:15:14;;;;;;;22.40;10.73;;;9.80;96.20;;;;;;5021575;28;20125;-66
2021/03/23 11:17:47;;;;;;;30.52;10.88;;;9.90;95.90;;;;;;4993693;28;20022;-66
2021/03/23 11:20:40;;;;;;;29.05;11.23;;;9.90;96.50;;;;;;4998825;28;20041;-66
2021/03/23 11:23:47;;;;;;;25.23;11.38;;;9.90;96.00;;;;;;5013713;28;20034;-65
2021/03/23 11:26:17;;;;;;;21.65;10.52;;;9.80;97.00;;;;;;5008416;28;20060;-66
2021/03/23 11:28:47;;;;;;;25.23;10.35;;;9.80;97.30;;;;;;4998384;28;20025;-67
2021/03/23 11:31:17;;;;;;;24.30;11.88;;;9.90;96.50;;;;;;5007403;28;20139;-65
2021/03/23 11:33:43;;;;;;;24.73;11.85;;;9.40;97.10;;;;;;5012630;28;20032;-66
2021/03/23 11:36:11;;;;;;;24.40;10.27;;;9.70;97.20;;;;;;5013041;28;20030;-65
2021/03/23 11:38:37;;;;;;;63.00;29.25;;;9.80;96.80;;;;;;5011993;28;20108;-66
2021/03/23 11:41:09;;;;;;;25.98;12.10;;;10.00;96.60;;;;;;5013090;28;20537;-65
2021/03/23 11:43:41;;;;;;;;;;;9.80;96.90;;;;;;5013191;28;20038;-65
2021/03/23 11:46:24;;;;;;;27.02;10.13;;;9.90;96.30;;;;;;5012081;28;19918;-66
2021/03/23 11:49:03;;;;;;;23.02;10.88;;;10.00;97.10;;;;;;5012849;28;20092;-65
2021/03/23 11:51:29;;;;;;;25.55;11.15;;;9.90;96.70;;;;;;5008705;28;20130;-65
2021/03/23 11:53:55;;;;;;;26.38;10.82;;;9.70;97.20;;;;;;5002180;28;20524;-65
2021/03/23 11:56:21;;;;;;;26.42;11.30;;;9.50;98.10;;;;;;5012490;28;20030;-65
2021/03/23 11:58:47;;;;;;;21.65;10.32;;;9.50;97.90;;;;;;5012397;28;20033;-66
2021/03/23 12:01:13;;;;;;;19.67;9.98;;;9.70;98.00;;;;;;4998196;28;20038;-66
2021/03/23 12:03:40;;;;;;;25.67;11.38;;;9.80;97.40;;;;;;4986792;28;20037;-66
2021/03/23 12:06:07;;;;;;;21.35;10.23;;;9.70;97.30;;;;;;5012376;28;20026;-65
2021/03/23 12:08:47;;;;;;;22.98;10.45;;;9.70;97.80;;;;;;5004965;28;20040;-66
2021/03/23 12:12:09;;;;;;;27.17;11.20;;;9.80;97.50;;;;;;5012403;28;20430;-66
2021/03/23 12:14:55;;;;;;;23.20;10.68;;;10.00;97.10;;;;;;5008587;28;20388;-66
2021/03/23 12:17:22;;;;;;;22.95;11.05;;;10.00;98.00;;;;;;4996985;28;20034;-66
2021/03/23 12:19:52;;;;;;;24.58;10.98;;;9.40;97.50;;;;;;4994791;28;20025;-66
2021/03/23 12:22:18;;;;;;;27.25;11.27;;;9.40;97.90;;;;;;4994761;28;20026;-66
2021/03/23 12:24:45;;;;;;;23.27;10.88;;;9.40;97.80;;;;;;5012217;28;20065;-66
2021/03/23 12:27:14;;;;;;;23.02;11.88;;;9.10;98.30;;;;;;5012045;28;20026;-66
2021/03/23 12:29:40;;;;;;;25.38;11.65;;;9.00;98.60;;;;;;5012288;28;20034;-66
2021/03/23 12:32:13;;;;;;;24.75;11.55;;;9.20;98.90;;;;;;4994678;28;20498;-66
2021/03/23 12:34:39;;;;;;;24.15;11.00;;;9.40;98.50;;;;;;5011249;28;20084;-65
2021/03/23 12:37:07;;;;;;;21.90;10.45;;;9.40;98.60;;;;;;5010752;28;20034;-65
2021/03/23 12:39:32;;;;;;;26.35;11.40;;;9.60;97.80;;;;;;4993556;28;20410;-65
2021/03/23 12:41:58;;;;;;;28.45;11.73;;;9.80;97.80;;;;;;5011951;28;20038;-65
2021/03/23 12:44:24;;;;;;;25.60;12.07;;;9.60;98.50;;;;;;5012166;28;20062;-65
2021/03/23 12:46:50;;;;;;;24.08;11.60;;;9.30;99.10;;;;;;5011660;28;20033;-65
2021/03/23 12:49:16;;;;;;;22.95;11.32;;;9.40;98.90;;;;;;5012262;28;20073;-65
2021/03/23 12:51:48;;;;;;;22.33;11.18;;;9.30;99.30;;;;;;5012116;28;20105;-66
2021/03/23 12:54:31;;;;;;;24.60;10.88;;;9.30;99.10;;;;;;4994883;28;20044;-66
2021/03/23 12:56:58;;;;;;;27.02;10.57;;;9.60;98.50;;;;;;4997128;28;20113;-66
2021/03/23 12:59:26;;;;;;;19.98;10.80;;;9.50;98.40;;;;;;5015836;28;20095;-66
2021/03/23 13:01:53;;;;;;;23.38;11.20;;;9.30;98.60;;;;;;4998525;28;20025;-66
2021/03/23 13:04:25;;;;;;;28.80;11.40;;;9.20;99.10;;;;;;5015535;28;20548;-65
2021/03/23 13:06:55;;;;;;;22.13;11.45;;;9.30;99.40;;;;;;5015722;28;20394;-65
2021/03/23 13:09:20;;;;;;;29.10;10.73;;;9.30;99.20;;;;;;5015842;28;20025;-66
2021/03/23 13:11:50;;;;;;;27.30;11.98;;;9.40;98.80;;;;;;5015669;28;20316;-66
2021/03/23 13:14:26;;;;;;;31.13;12.57;;;9.60;98.60;;;;;;4998468;28;20099;-66